createdAt,value
2022-09-15T00:01:44.797Z,99473.31
2022-09-15T00:04:13.213Z,99469.16
2022-09-15T00:06:41.218Z,99471.22
2022-09-15T00:09:09.581Z,99478.97
2022-09-15T00:11:38.631Z,99467.28
2022-09-15T00:14:08.231Z,99468.84
2022-09-15T00:16:36.661Z,99477.34
2022-09-15T00:19:06.569Z,99470.53
2022-09-15T00:21:37.362Z,99462.88
2022-09-15T00:24:06.110Z,99464.88
2022-09-15T00:26:34.227Z,99463.41
2022-09-15T00:29:02.808Z,99461.16
2022-09-15T00:31:32.314Z,99461.19
2022-09-15T00:34:03.923Z,99464.88
2022-09-15T00:36:32.634Z,99464.41
2022-09-15T00:39:00.690Z,99451.47
2022-09-15T00:41:29.606Z,99444.09
2022-09-15T00:44:00.404Z,99450.31
2022-09-15T00:46:35.471Z,99440.47
2022-09-15T00:49:13.157Z,99446.88
2022-09-15T00:51:57.213Z,99446.19
2022-09-15T00:54:28.056Z,99437.84
2022-09-15T00:57:00.380Z,99440.81
2022-09-15T00:59:31.948Z,99436.03
2022-09-15T01:02:16.502Z,99438.94
2022-09-15T01:04:45.040Z,99442.59
2022-09-15T01:07:23.733Z,99447.16
2022-09-15T01:10:06.803Z,99439.63
2022-09-15T01:12:35.661Z,99446.00
2022-09-15T01:15:04.044Z,99435.75
2022-09-15T01:17:53.222Z,99428.50
2022-09-15T01:20:36.797Z,99435.53
2022-09-15T01:23:36.920Z,99429.75
2022-09-15T01:26:47.280Z,99432.00
2022-09-15T01:29:36.806Z,99423.50
2022-09-15T01:32:55.001Z,99421.81
2022-09-15T01:35:33.507Z,99422.63
2022-09-15T01:38:12.847Z,99423.56
2022-09-15T01:40:48.897Z,99429.69
2022-09-15T01:43:21.027Z,99422.66
2022-09-15T01:45:50.661Z,99421.84
2022-09-15T01:48:22.578Z,99418.59
2022-09-15T01:50:55.549Z,99414.22
2022-09-15T01:53:24.691Z,99404.09
2022-09-15T01:56:10.303Z,99407.78
2022-09-15T01:58:40.603Z,99405.16
2022-09-15T02:01:17.220Z,99405.22
2022-09-15T02:03:55.562Z,99402.44
2022-09-15T02:06:50.123Z,99399.63
2022-09-15T02:09:26.346Z,99402.50
2022-09-15T02:12:07.866Z,99408.69
2022-09-15T02:15:05.548Z,99407.47
2022-09-15T02:17:42.623Z,99408.72
2022-09-15T02:20:15.585Z,99421.47
2022-09-15T02:22:50.461Z,99412.03
2022-09-15T02:25:24.519Z,99414.00
2022-09-15T02:27:56.533Z,99403.28
2022-09-15T02:30:25.375Z,99402.81
2022-09-15T02:32:58.217Z,99397.81
2022-09-15T02:35:28.802Z,99398.13
2022-09-15T02:37:58.077Z,99393.91
2022-09-15T02:40:28.405Z,99387.75
2022-09-15T02:42:58.130Z,99393.66
2022-09-15T02:45:27.044Z,99369.84
2022-09-15T02:47:54.863Z,99350.34
2022-09-15T02:50:22.632Z,99340.69
2022-09-15T02:52:50.845Z,99349.59
2022-09-15T02:55:18.761Z,99364.25
2022-09-15T02:57:46.660Z,99358.94
2022-09-15T03:00:17.447Z,99351.28
2022-09-15T03:02:50.162Z,99364.84
2022-09-15T03:05:21.387Z,99384.37
2022-09-15T03:07:49.913Z,99389.56
2022-09-15T03:10:18.771Z,99398.91
2022-09-15T03:12:51.701Z,99397.22
2022-09-15T03:15:24.007Z,99407.88
2022-09-15T03:17:53.158Z,99397.84
2022-09-15T03:20:26.112Z,99399.56
2022-09-15T03:22:54.649Z,99393.88
2022-09-15T03:25:23.613Z,99408.03
2022-09-15T03:27:51.340Z,99416.56
2022-09-15T03:30:19.319Z,99421.09
2022-09-15T03:32:47.503Z,99417.13
2022-09-15T03:35:20.100Z,99418.84
2022-09-15T03:37:48.279Z,99406.84
2022-09-15T03:40:17.013Z,99414.13
2022-09-15T03:42:44.864Z,99412.94
2022-09-15T03:45:13.363Z,99421.37
2022-09-15T03:47:41.074Z,99419.72
2022-09-15T03:50:09.515Z,99425.09
2022-09-15T03:52:37.600Z,99416.63
2022-09-15T03:55:05.908Z,99410.53
2022-09-15T03:57:33.847Z,99409.97
2022-09-15T04:00:02.862Z,99408.03
2022-09-15T04:02:32.986Z,99417.13
2022-09-15T04:05:02.732Z,99417.34
2022-09-15T04:07:30.663Z,99414.78
2022-09-15T04:09:59.116Z,99431.84
2022-09-15T04:12:27.238Z,99428.56
2022-09-15T04:14:56.154Z,99429.69
2022-09-15T04:17:24.237Z,99434.69
2022-09-15T04:19:52.359Z,99427.03
2022-09-15T04:22:20.662Z,99437.13
2022-09-15T04:24:50.172Z,99447.38
2022-09-15T04:27:18.965Z,99437.00
2022-09-15T04:29:50.365Z,99446.97
2022-09-15T04:32:19.606Z,99449.06
2022-09-15T04:34:47.661Z,99450.16
2022-09-15T04:37:15.569Z,99447.09
2022-09-15T04:39:44.604Z,99445.25
2022-09-15T04:42:12.405Z,99457.34
2022-09-15T04:44:40.307Z,99463.44
2022-09-15T04:47:08.615Z,99468.22
2022-09-15T04:49:36.838Z,99471.75
2022-09-15T04:52:09.448Z,99468.56
2022-09-15T04:54:38.097Z,99471.22
2022-09-15T04:57:06.145Z,99471.22
2022-09-15T04:59:34.466Z,99480.19
2022-09-15T05:02:03.407Z,99480.59
2022-09-15T05:04:31.308Z,99477.47
2022-09-15T05:06:59.168Z,99472.03
2022-09-15T05:09:29.538Z,99477.00
2022-09-15T05:11:57.825Z,99478.22
2022-09-15T05:14:25.510Z,99479.25
2022-09-15T05:16:53.881Z,99477.16
2022-09-15T05:19:21.713Z,99473.97
2022-09-15T05:21:49.502Z,99469.69
2022-09-15T05:24:17.731Z,99468.59
2022-09-15T05:26:45.657Z,99470.56
2022-09-15T05:29:13.887Z,99464.16
2022-09-15T05:31:42.785Z,99462.00
2022-09-15T05:34:11.370Z,99467.09
2022-09-15T05:36:39.532Z,99475.75
2022-09-15T05:39:08.141Z,99475.34
2022-09-15T05:41:35.972Z,99481.25
2022-09-15T05:44:03.973Z,99480.56
2022-09-15T05:46:32.247Z,99491.53
2022-09-15T05:49:00.405Z,99490.25
2022-09-15T05:51:29.909Z,99493.22
2022-09-15T05:53:58.162Z,99498.94
2022-09-15T05:56:26.450Z,99495.81
2022-09-15T05:58:54.698Z,99506.59
2022-09-15T06:01:25.525Z,99510.69
2022-09-15T06:03:54.740Z,99518.63
2022-09-15T06:06:23.991Z,99512.38
2022-09-15T06:08:58.019Z,99516.78
2022-09-15T06:11:30.066Z,99516.19
2022-09-15T06:14:03.684Z,99523.88
2022-09-15T06:16:35.596Z,99521.28
2022-09-15T06:19:03.899Z,99531.75
2022-09-15T06:21:33.173Z,99539.91
2022-09-15T06:24:04.564Z,99540.53
2022-09-15T06:26:33.844Z,99551.53
2022-09-15T06:29:05.636Z,99570.22
2022-09-15T06:31:34.607Z,99576.94
2022-09-15T06:34:04.069Z,99571.94
2022-09-15T06:36:32.905Z,99569.84
2022-09-15T06:39:01.579Z,99570.88
2022-09-15T06:41:42.648Z,99551.94
2022-09-15T06:44:21.495Z,99560.66
2022-09-15T06:46:49.583Z,99567.13
2022-09-15T06:49:17.856Z,99565.81
2022-09-15T06:51:46.274Z,99571.72
2022-09-15T06:54:16.072Z,99566.03
2022-09-15T06:56:44.312Z,99571.56
2022-09-15T06:59:13.817Z,99571.94
2022-09-15T07:01:42.060Z,99568.13
2022-09-15T07:04:10.493Z,99565.44
2022-09-15T07:06:39.483Z,99567.97
2022-09-15T07:09:07.548Z,99577.81
2022-09-15T07:11:35.727Z,99594.12
2022-09-15T07:14:04.546Z,99588.94
2022-09-15T07:16:32.761Z,99595.59
2022-09-15T07:19:03.323Z,99598.75
2022-09-15T07:21:31.554Z,99595.78
2022-09-15T07:24:03.706Z,99606.84
2022-09-15T07:26:35.202Z,99615.91
2022-09-15T07:29:06.157Z,99614.84
2022-09-15T07:31:37.839Z,99622.31
2022-09-15T07:34:06.952Z,99619.50
2022-09-15T07:36:36.298Z,99623.34
2022-09-15T07:39:05.265Z,99618.91
2022-09-15T07:41:33.388Z,99611.25
2022-09-15T07:44:01.960Z,99613.81
2022-09-15T07:46:32.199Z,99604.56
2022-09-15T07:49:00.928Z,99611.59
2022-09-15T07:51:29.331Z,99608.53
2022-09-15T07:53:57.588Z,99612.94
2022-09-15T07:56:25.989Z,99613.78
2022-09-15T07:58:54.818Z,99617.97
2022-09-15T08:01:23.345Z,99615.28
2022-09-15T08:03:52.867Z,99613.84
2022-09-15T08:06:23.878Z,99623.78
2022-09-15T08:08:56.329Z,99632.59
2022-09-15T08:11:28.601Z,99630.56
2022-09-15T08:13:56.944Z,99629.47
2022-09-15T08:16:24.894Z,99620.00
2022-09-15T08:18:54.100Z,99617.78
2022-09-15T08:21:23.194Z,99625.38
2022-09-15T08:23:59.362Z,99634.94
2022-09-15T08:26:29.155Z,99626.53
2022-09-15T08:28:58.016Z,99626.94
2022-09-15T08:31:25.879Z,99629.59
2022-09-15T08:33:55.670Z,99627.31
2022-09-15T08:36:24.603Z,99630.38
2022-09-15T08:38:52.502Z,99637.13
2022-09-15T08:41:34.091Z,99641.34
2022-09-15T08:44:17.263Z,99644.44
2022-09-15T08:46:54.445Z,99648.91
2022-09-15T08:49:52.516Z,99654.91
2022-09-15T08:52:28.597Z,99647.34
2022-09-15T08:54:58.560Z,99652.75
2022-09-15T08:57:26.855Z,99639.72
2022-09-15T08:59:55.594Z,99633.69
2022-09-15T09:02:36.910Z,99644.44
2022-09-15T09:05:20.290Z,99643.34
2022-09-15T09:08:21.616Z,99628.44
2022-09-15T09:10:54.399Z,99625.41
2022-09-15T09:13:40.102Z,99622.34
2022-09-15T09:16:20.493Z,99629.16
2022-09-15T09:19:13.094Z,99632.28
2022-09-15T09:21:50.616Z,99629.25
2022-09-15T09:24:41.647Z,99629.91
2022-09-15T09:27:25.292Z,99625.56
2022-09-15T09:30:01.026Z,99631.91
2022-09-15T09:32:45.514Z,99615.81
2022-09-15T09:35:24.912Z,99613.00
2022-09-15T09:37:56.726Z,99603.06
2022-09-15T09:40:24.718Z,99601.03
2022-09-15T09:42:52.855Z,99597.87
2022-09-15T09:45:22.783Z,99603.22
2022-09-15T09:47:50.567Z,99591.84
2022-09-15T09:50:38.968Z,99584.66
2022-09-15T09:53:25.775Z,99579.97
2022-09-15T09:55:55.332Z,99576.31
2022-09-15T09:58:25.476Z,99582.16
2022-09-15T10:00:53.715Z,99584.34
2022-09-15T10:03:28.147Z,99574.78
2022-09-15T10:06:01.631Z,99574.81
2022-09-15T10:08:29.865Z,99574.84
2022-09-15T10:11:11.053Z,99570.16
2022-09-15T10:13:52.653Z,99569.72
2022-09-15T10:16:22.645Z,99546.19
2022-09-15T10:18:54.159Z,99552.88
2022-09-15T10:21:24.962Z,99551.69
2022-09-15T10:23:53.274Z,99560.28
2022-09-15T10:26:33.856Z,99554.97
2022-09-15T10:29:17.258Z,99561.72
2022-09-15T10:31:46.078Z,99559.25
2022-09-15T10:34:31.138Z,99550.81
2022-09-15T10:37:27.157Z,99554.84
2022-09-15T10:39:59.632Z,99532.84
2022-09-15T10:43:05.938Z,99536.41
2022-09-15T10:45:39.760Z,99534.41
2022-09-15T10:48:13.476Z,99534.56
2022-09-15T10:51:33.193Z,99526.94
2022-09-15T10:54:35.403Z,99532.09
2022-09-15T10:57:07.335Z,99531.16
2022-09-15T11:00:00.014Z,99523.34
2022-09-15T11:02:56.067Z,99527.69
2022-09-15T11:05:39.304Z,99525.56
2022-09-15T11:08:22.705Z,99524.22
2022-09-15T11:11:18.223Z,99521.19
2022-09-15T11:13:56.582Z,99520.53
2022-09-15T11:16:33.299Z,99528.69
2022-09-15T11:19:29.182Z,99516.66
2022-09-15T11:22:13.424Z,99517.62
2022-09-15T11:24:48.077Z,99508.09
2022-09-15T11:27:31.012Z,99512.63
2022-09-15T11:30:16.488Z,99518.34
2022-09-15T11:33:00.108Z,99509.47
2022-09-15T11:35:37.166Z,99516.28
2022-09-15T11:38:21.620Z,99511.19
2022-09-15T11:40:59.458Z,99507.47
2022-09-15T11:43:45.985Z,99493.16
2022-09-15T11:46:24.171Z,99488.34
2022-09-15T11:49:01.362Z,99494.34
2022-09-15T11:51:39.099Z,99494.69
2022-09-15T11:54:21.393Z,99494.97
2022-09-15T11:56:51.096Z,99492.06
2022-09-15T11:59:23.197Z,99491.03
2022-09-15T12:02:09.331Z,99491.59
2022-09-15T12:05:05.049Z,99488.53
2022-09-15T12:07:39.420Z,99483.75
2022-09-15T12:10:41.597Z,99473.13
2022-09-15T12:13:18.325Z,99471.47
2022-09-15T12:15:47.783Z,99471.16
2022-09-15T12:18:46.673Z,99470.84
2022-09-15T12:21:37.501Z,99464.44
2022-09-15T12:24:14.862Z,99469.56
2022-09-15T12:26:46.688Z,99473.59
2022-09-15T12:29:26.942Z,99457.41
2022-09-15T12:32:19.387Z,99453.97
2022-09-15T12:35:13.839Z,99455.50
2022-09-15T12:37:49.191Z,99461.97
2022-09-15T12:40:44.131Z,99459.66
2022-09-15T12:43:16.032Z,99447.47
2022-09-15T12:45:57.751Z,99456.03
2022-09-15T12:48:31.446Z,99458.38
2022-09-15T12:51:05.886Z,99445.31
2022-09-15T12:53:37.879Z,99445.31
2022-09-15T12:56:21.221Z,99446.59
2022-09-15T12:58:50.933Z,99447.09
2022-09-15T13:01:19.080Z,99452.84
2022-09-15T13:03:48.912Z,99442.88
2022-09-15T13:06:31.098Z,99431.91
2022-09-15T13:09:01.711Z,99439.78
2022-09-15T13:11:50.229Z,99423.97
2022-09-15T13:14:38.223Z,99428.09
2022-09-15T13:17:14.384Z,99420.41
2022-09-15T13:19:46.873Z,99409.09
2022-09-15T13:22:24.286Z,99402.25
2022-09-15T13:25:02.150Z,99399.78
2022-09-15T13:27:41.036Z,99409.81
2022-09-15T13:30:21.239Z,99409.41
2022-09-15T13:33:01.771Z,99396.16
2022-09-15T13:35:52.220Z,99393.47
2022-09-15T13:38:30.855Z,99390.87
2022-09-15T13:41:34.211Z,99383.75
2022-09-15T13:44:19.303Z,99383.19
2022-09-15T13:46:54.661Z,99386.91
2022-09-15T13:49:41.241Z,99390.59
2022-09-15T13:52:22.422Z,99397.41
2022-09-15T13:55:17.833Z,99390.72
2022-09-15T14:00:59.403Z,99390.78
2022-09-15T14:03:42.484Z,99378.97
2022-09-15T14:06:13.727Z,99368.31
2022-09-15T14:08:44.120Z,99365.62
2022-09-15T14:11:17.253Z,99363.44
2022-09-15T14:13:47.741Z,99369.28
2022-09-15T14:16:34.009Z,99365.69
2022-09-15T14:19:21.060Z,99376.50
2022-09-15T14:21:52.833Z,99371.88
2022-09-15T14:24:28.884Z,99376.91
2022-09-15T14:27:07.360Z,99368.97
2022-09-15T14:29:40.701Z,99373.03
2022-09-15T14:32:14.974Z,99375.72
2022-09-15T14:34:44.660Z,99362.63
2022-09-15T14:37:24.070Z,99353.37
2022-09-15T14:39:57.267Z,99351.47
2022-09-15T14:42:36.445Z,99341.53
2022-09-15T14:48:03.077Z,99336.09
2022-09-15T14:50:33.508Z,99344.59
2022-09-15T14:53:10.477Z,99342.66
2022-09-15T14:55:50.431Z,99341.88
2022-09-15T14:58:27.377Z,99337.78
2022-09-15T15:00:55.226Z,99319.81
2022-09-15T15:03:46.212Z,99301.91
2022-09-15T15:06:30.068Z,99288.50
2022-09-15T15:09:03.594Z,99288.56
2022-09-15T15:11:33.907Z,99303.00
2022-09-15T15:14:06.058Z,99304.81
2022-09-15T15:16:34.253Z,99301.91
2022-09-15T15:19:01.877Z,99291.91
2022-09-15T15:21:32.163Z,99285.53
2022-09-15T15:24:00.244Z,99290.34
2022-09-15T15:26:40.832Z,99285.28
2022-09-15T15:29:54.699Z,99295.47
2022-09-15T15:32:25.131Z,99285.28
2022-09-15T15:35:01.194Z,99280.69
2022-09-15T15:37:31.656Z,99287.97
2022-09-15T15:40:05.223Z,99291.41
2022-09-15T15:42:33.433Z,99288.69
2022-09-15T15:45:13.492Z,99289.09
2022-09-15T15:47:41.144Z,99286.81
2022-09-15T15:50:15.521Z,99278.88
2022-09-15T15:52:44.042Z,99274.63
2022-09-15T15:55:17.405Z,99268.28
2022-09-15T15:57:47.819Z,99267.84
2022-09-15T16:00:22.110Z,99258.03
2022-09-15T16:02:53.544Z,99246.75
2022-09-15T16:05:25.370Z,99240.09
2022-09-15T16:07:56.181Z,99260.75
2022-09-15T16:10:30.104Z,99273.38
2022-09-15T16:12:58.147Z,99294.47
2022-09-15T16:15:26.913Z,99299.63
2022-09-15T16:17:54.494Z,99297.28
2022-09-15T16:20:24.800Z,99301.88
2022-09-15T16:22:52.438Z,99296.19
2022-09-15T16:25:52.330Z,99301.44
2022-09-15T16:28:20.643Z,99301.09
2022-09-15T16:30:50.715Z,99299.97
2022-09-15T16:33:18.941Z,99342.41
2022-09-15T16:35:55.048Z,99368.53
2022-09-15T16:38:26.002Z,99404.59
2022-09-15T16:40:54.073Z,99488.38
2022-09-15T16:43:22.521Z,99457.88
2022-09-15T16:45:51.178Z,99440.19
2022-09-15T16:48:19.610Z,99465.31
2022-09-15T16:53:37.609Z,99469.13
2022-09-15T16:56:07.604Z,99471.06
2022-09-15T16:58:35.228Z,99482.72
2022-09-15T17:01:03.497Z,99490.06
2022-09-15T17:03:31.404Z,99475.34
2022-09-15T17:06:01.223Z,99453.13
2022-09-15T17:08:31.625Z,99439.31
2022-09-15T17:11:04.733Z,99424.66
2022-09-15T17:13:34.357Z,99416.53
2022-09-15T17:16:02.210Z,99399.44
2022-09-15T17:18:30.329Z,99399.78
2022-09-15T17:20:59.011Z,99394.00
2022-09-15T17:23:39.099Z,99388.88
2022-09-15T17:26:11.759Z,99398.19
2022-09-15T17:28:40.291Z,99405.50
2022-09-15T17:31:23.145Z,99370.72
2022-09-15T17:33:51.531Z,99367.00
2022-09-15T17:36:19.814Z,99367.41
2022-09-15T17:38:48.935Z,99373.28
2022-09-15T17:41:19.692Z,99363.78
2022-09-15T17:43:47.637Z,99366.34
2022-09-15T17:46:15.406Z,99367.72
2022-09-15T17:48:43.332Z,99357.75
2022-09-15T17:51:19.306Z,99365.62
2022-09-15T17:53:47.784Z,99360.31
2022-09-15T17:56:16.687Z,99371.38
2022-09-15T17:58:44.511Z,99369.53
2022-09-15T18:01:13.465Z,99362.91
2022-09-15T18:03:43.288Z,99367.06
2022-09-15T18:06:11.513Z,99374.38
2022-09-15T18:08:39.264Z,99369.37
2022-09-15T18:11:07.428Z,99371.47
2022-09-15T18:13:35.150Z,99384.37
2022-09-15T18:16:07.790Z,99378.06
2022-09-15T18:18:36.128Z,99374.66
2022-09-15T18:21:12.284Z,99376.37
2022-09-15T18:23:42.442Z,99379.03
2022-09-15T18:26:10.113Z,99376.34
2022-09-15T18:28:37.689Z,99388.56
2022-09-15T18:31:05.960Z,99387.56
2022-09-15T18:33:33.662Z,99369.00
2022-09-15T18:36:01.551Z,99368.19
2022-09-15T18:38:29.484Z,99372.44
2022-09-15T18:40:57.314Z,99357.12
2022-09-15T18:43:27.325Z,99361.00
2022-09-15T18:46:00.069Z,99353.72
2022-09-15T18:48:28.399Z,99347.19
2022-09-15T18:50:56.770Z,99343.53
2022-09-15T18:53:24.966Z,99340.72
2022-09-15T18:55:52.834Z,99335.03
2022-09-15T18:58:22.445Z,99329.78
2022-09-15T19:00:50.432Z,99323.50
2022-09-15T19:03:18.447Z,99319.62
2022-09-15T19:05:46.403Z,99324.97
2022-09-15T19:08:14.075Z,99324.38
2022-09-15T19:10:44.163Z,99325.06
2022-09-15T19:13:14.180Z,99323.69
2022-09-15T19:15:44.009Z,99342.34
2022-09-15T19:18:12.139Z,99332.72
2022-09-15T19:20:40.427Z,99329.53
2022-09-15T19:23:09.413Z,99340.63
2022-09-15T19:25:37.790Z,99340.56
2022-09-15T19:28:05.495Z,99351.03
2022-09-15T19:30:33.454Z,99350.16
2022-09-15T19:33:05.139Z,99352.19
2022-09-15T19:35:32.741Z,99360.13
2022-09-15T19:38:00.405Z,99362.59
2022-09-15T19:40:28.969Z,99360.09
2022-09-15T19:42:56.703Z,99364.19
2022-09-15T19:45:24.369Z,99366.84
2022-09-15T19:47:52.417Z,99366.09
2022-09-15T19:50:20.180Z,99369.13
2022-09-15T19:52:47.731Z,99369.28
2022-09-15T19:55:15.637Z,99374.88
2022-09-15T19:57:43.322Z,99382.69
2022-09-15T20:00:14.680Z,99386.44
2022-09-15T20:02:46.661Z,99372.53
2022-09-15T20:05:14.409Z,99383.53
2022-09-15T20:07:42.297Z,99388.28
2022-09-15T20:10:10.630Z,99384.78
2022-09-15T20:12:38.366Z,99381.69
2022-09-15T20:15:07.055Z,99391.97
2022-09-15T20:17:34.630Z,99386.69
2022-09-15T20:20:03.067Z,99391.44
2022-09-15T20:22:31.134Z,99393.75
2022-09-15T20:24:58.768Z,99389.91
2022-09-15T20:27:26.257Z,99396.00
2022-09-15T20:29:54.670Z,99409.69
2022-09-15T20:32:27.585Z,99425.53
2022-09-15T20:37:37.882Z,99437.56
2022-09-15T20:40:08.460Z,99431.16
2022-09-15T20:42:36.855Z,99431.63
2022-09-15T20:45:05.028Z,99433.72
2022-09-15T20:47:32.984Z,99436.03
2022-09-15T20:50:01.358Z,99433.56
2022-09-15T20:52:34.769Z,99436.94
2022-09-15T20:55:05.756Z,99436.31
2022-09-15T20:57:33.508Z,99436.84
2022-09-15T21:00:01.993Z,99450.31
2022-09-15T21:02:32.468Z,99451.94
2022-09-15T21:05:00.100Z,99451.94
2022-09-15T21:07:27.614Z,99450.22
2022-09-15T21:09:55.820Z,99451.63
2022-09-15T21:12:23.326Z,99445.66
2022-09-15T21:14:51.717Z,99446.00
2022-09-15T21:17:19.906Z,99443.16
2022-09-15T21:19:48.663Z,99437.16
2022-09-15T21:22:16.147Z,99441.56
2022-09-15T21:24:44.075Z,99451.06
2022-09-15T21:27:26.960Z,99442.38
2022-09-15T21:29:54.874Z,99443.66
2022-09-15T21:32:22.491Z,99446.97
2022-09-15T21:34:50.104Z,99447.47
2022-09-15T21:37:18.041Z,99454.28
2022-09-15T21:39:46.178Z,99457.28
2022-09-15T21:42:14.116Z,99458.31
2022-09-15T21:44:45.285Z,99452.06
2022-09-15T21:47:12.796Z,99449.69
2022-09-15T21:49:40.471Z,99445.06
2022-09-15T21:52:08.354Z,99441.75
2022-09-15T21:54:35.887Z,99435.63
2022-09-15T21:57:03.583Z,99446.81
2022-09-15T21:59:31.472Z,99449.41
2022-09-15T22:01:59.073Z,99452.87
2022-09-15T22:04:26.919Z,99461.81
2022-09-15T22:06:54.384Z,99467.25
2022-09-15T22:09:23.447Z,99462.91
2022-09-15T22:11:51.328Z,99465.81
2022-09-15T22:14:18.974Z,99454.44
2022-09-15T22:16:46.712Z,99464.81
2022-09-15T22:19:14.596Z,99457.34
2022-09-15T22:21:42.603Z,99456.25
2022-09-15T22:24:12.977Z,99449.75
2022-09-15T22:26:41.511Z,99457.34
2022-09-15T22:29:09.748Z,99458.59
2022-09-15T22:31:37.954Z,99459.78
2022-09-15T22:34:05.858Z,99464.66
2022-09-15T22:36:33.969Z,99469.28
2022-09-15T22:39:05.452Z,99462.97
2022-09-15T22:41:36.054Z,99472.53
2022-09-15T22:44:04.983Z,99481.44
2022-09-15T22:46:33.012Z,99479.12
2022-09-15T22:49:00.505Z,99485.56
2022-09-15T22:51:28.113Z,99479.28
2022-09-15T22:53:57.379Z,99475.50
2022-09-15T22:56:26.535Z,99486.78
2022-09-15T22:58:55.675Z,99491.56
2022-09-15T23:01:26.978Z,99491.47
2022-09-15T23:03:55.746Z,99493.69
2022-09-15T23:06:25.549Z,99487.66
2022-09-15T23:08:58.491Z,99488.06
2022-09-15T23:11:28.341Z,99494.97
2022-09-15T23:13:56.402Z,99491.81
2022-09-15T23:16:25.617Z,99492.59
2022-09-15T23:18:54.413Z,99493.41
2022-09-15T23:21:22.486Z,99502.62
2022-09-15T23:23:50.576Z,99508.19
2022-09-15T23:26:20.472Z,99502.75
2022-09-15T23:28:49.573Z,99496.06
2022-09-15T23:31:17.760Z,99502.47
2022-09-15T23:33:46.116Z,99513.91
2022-09-15T23:36:15.963Z,99524.22
2022-09-15T23:38:45.057Z,99527.72
2022-09-15T23:41:13.956Z,99530.53
2022-09-15T23:43:41.890Z,99529.94
2022-09-15T23:46:09.951Z,99517.97
2022-09-15T23:48:38.111Z,99526.09
2022-09-15T23:51:09.014Z,99520.81
2022-09-15T23:53:36.878Z,99518.66
2022-09-15T23:56:05.000Z,99523.19
2022-09-15T23:58:32.757Z,99522.59
